Time;durP1;ratioP1;P1;durP2;ratioP2;P2;SDS_P1;SDS_P2;PMS_P1;PMS_P2;Temp;Humidity;BMP_temperature;BMP_pressure;BME280_temperature;BME280_humidity;BME280_pressure;Samples;Min_cycle;Max_cycle;Signal;HPM_P1;HPM_P2
2022/01/16 00:00:25;;;;;;;36.97;26.53;;;;;;;;;;5004305;28;20026;-63
2022/01/16 00:05:24;;;;;;;38.17;27.07;;;;;;;;;;5000584;28;20030;-63
2022/01/16 00:07:50;;;;;;;35.40;27.07;;;;;;;;;;4982692;28;20026;-63
2022/01/16 00:10:18;;;;;;;38.47;27.67;;;;;;;;;;5000025;28;20041;-63
2022/01/16 00:12:48;;;;;;;34.67;25.13;;;;;;;;;;5007007;28;20029;-63
2022/01/16 00:15:14;;;;;;;40.23;27.50;;;;;;;;;;5019119;28;20067;-63
2022/01/16 00:17:51;;;;;;;37.40;25.80;;;;;;;;;;5007887;28;20053;-63
2022/01/16 00:20:18;;;;;;;36.70;26.73;;;;;;;;;;5006128;28;20022;-63
2022/01/16 00:22:45;;;;;;;39.27;27.90;;;;;;;;;;5007797;28;20036;-63
2022/01/16 00:25:12;;;;;;;43.07;27.77;;;;;;;;;;5019114;28;20076;-64
2022/01/16 00:27:55;;;;;;;43.17;30.33;;;;;;;;;;5018416;28;20483;-64
2022/01/16 00:30:21;;;;;;;39.53;28.33;;;;;;;;;;5019541;28;20108;-63
2022/01/16 00:32:47;;;;;;;36.40;26.97;;;;;;;;;;5018842;28;20061;-63
2022/01/16 00:35:16;;;;;;;38.47;27.77;;;;;;;;;;5019596;28;20025;-63
2022/01/16 00:37:42;;;;;;;37.77;26.93;;;;;;;;;;5007929;28;20090;-63
2022/01/16 00:40:09;;;;;;;38.20;27.13;;;;;;;;;;4999951;28;20027;-63
2022/01/16 00:42:35;;;;;;;44.33;26.70;;;;;;;;;;4989612;28;20049;-63
2022/01/16 00:45:02;;;;;;;38.77;27.13;;;;;;;;;;5018640;28;20491;-63
2022/01/16 00:47:28;;;;;;;37.47;26.23;;;;;;;;;;5010050;28;20023;-63
2022/01/16 00:49:54;;;;;;;39.00;27.43;;;;;;;;;;4999918;28;20030;-63
2022/01/16 00:52:20;;;;;;;37.53;26.93;;;;;;;;;;5006930;28;20065;-63
2022/01/16 00:57:50;;;;;;;36.97;27.27;;;;;;;;;;5016120;28;20092;-63
2022/01/16 01:00:16;;;;;;;34.10;26.40;;;;;;;;;;5019449;28;20019;-63
2022/01/16 01:02:42;;;;;;;36.67;26.97;;;;;;;;;;5021713;28;20025;-63
2022/01/16 01:05:09;;;;;;;40.50;28.33;;;;;;;;;;5000348;28;20049;-63
2022/01/16 01:07:35;;;;;;;39.30;28.30;;;;;;;;;;5008602;28;20049;-63
2022/01/16 01:10:02;;;;;;;38.27;26.63;;;;;;;;;;5016842;28;20497;-63
2022/01/16 01:12:33;;;;;;;36.87;26.80;;;;;;;;;;5003010;28;20054;-63
2022/01/16 01:15:08;;;;;;;42.50;27.53;;;;;;;;;;4996655;28;20022;-63
2022/01/16 01:17:37;;;;;;;36.92;27.40;;;;;;;;;;4996705;28;20496;-63
2022/01/16 01:20:05;;;;;;;41.00;28.73;;;;;;;;;;4996253;28;20049;-63
2022/01/16 01:22:31;;;;;;;36.20;27.43;;;;;;;;;;4978783;28;20030;-63
2022/01/16 01:24:57;;;;;;;40.70;28.43;;;;;;;;;;4996400;28;20433;-63
2022/01/16 01:27:29;;;;;;;37.30;27.40;;;;;;;;;;5002726;28;20076;-63
2022/01/16 01:30:02;;;;;;;40.67;28.37;;;;;;;;;;4987477;28;20030;-63
2022/01/16 01:32:30;;;;;;;38.13;27.27;;;;;;;;;;5008397;28;20491;-63
2022/01/16 01:34:56;;;;;;;44.97;29.00;;;;;;;;;;4995764;28;20030;-63
2022/01/16 01:37:22;;;;;;;44.83;28.03;;;;;;;;;;5004145;28;20034;-63
2022/01/16 01:39:48;;;;;;;40.17;28.33;;;;;;;;;;5011819;28;20088;-63
2022/01/16 01:42:15;;;;;;;41.63;28.03;;;;;;;;;;5010655;28;20034;-63
2022/01/16 01:52:57;;;;;;;;;;;;;;;;;;5013891;28;20541;-63
2022/01/16 01:55:24;;;;;;;42.97;28.03;;;;;;;;;;5015566;28;19905;-63
2022/01/16 01:57:50;;;;;;;46.27;28.53;;;;;;;;;;4992515;28;20069;-63
2022/01/16 02:00:18;;;;;;;40.57;28.00;;;;;;;;;;5004588;28;20080;-63
2022/01/16 02:05:19;;;;;;;38.60;27.63;;;;;;;;;;4996849;28;20038;-63
2022/01/16 02:07:46;;;;;;;43.83;29.07;;;;;;;;;;5011522;28;20057;-63
2022/01/16 02:10:12;;;;;;;41.87;27.23;;;;;;;;;;4995747;28;20034;-63
2022/01/16 02:12:42;;;;;;;41.30;30.23;;;;;;;;;;5012361;28;20034;-63
2022/01/16 02:15:33;;;;;;;40.33;27.83;;;;;;;;;;5005297;28;20022;-64
2022/01/16 02:32:25;;;;;;;37.63;28.25;;;;;;;;;;4995636;28;20065;-63
2022/01/16 02:34:45;;;;;;;38.27;27.37;;;;;;;;;;4994315;28;20034;-63
2022/01/16 02:37:14;;;;;;;42.00;29.00;;;;;;;;;;4995094;28;20030;-63
2022/01/16 02:39:51;;;;;;;39.90;28.33;;;;;;;;;;4978686;28;20035;-63
2022/01/16 02:42:18;;;;;;;39.80;27.73;;;;;;;;;;5014628;28;20033;-63
2022/01/16 02:44:49;;;;;;;43.10;30.53;;;;;;;;;;4996199;28;20387;-63
2022/01/16 02:47:19;;;;;;;37.47;28.17;;;;;;;;;;5003803;28;20045;-62
2022/01/16 02:50:01;;;;;;;43.83;28.87;;;;;;;;;;4996148;28;20085;-63
2022/01/16 02:52:27;;;;;;;41.23;28.70;;;;;;;;;;4976817;28;20034;-63
2022/01/16 02:54:55;;;;;;;45.03;29.17;;;;;;;;;;5002708;28;20037;-63
2022/01/16 02:57:22;;;;;;;45.30;29.77;;;;;;;;;;5014074;28;20144;-63
2022/01/16 02:59:49;;;;;;;45.27;30.53;;;;;;;;;;5002264;28;20116;-62
2022/01/16 03:02:16;;;;;;;40.60;29.13;;;;;;;;;;5012202;28;20030;-63
2022/01/16 03:04:42;;;;;;;39.77;29.57;;;;;;;;;;5005871;28;20113;-62
2022/01/16 03:07:08;;;;;;;40.43;28.67;;;;;;;;;;4999954;28;20128;-62
2022/01/16 03:12:18;;;;;;;42.80;29.88;;;;;;;;;;5011813;28;20045;-63
2022/01/16 03:14:44;;;;;;;37.93;28.07;;;;;;;;;;4980520;28;20061;-63
2022/01/16 03:17:11;;;;;;;38.63;28.50;;;;;;;;;;5012825;28;20479;-63
2022/01/16 03:22:22;;;;;;;40.42;27.70;;;;;;;;;;5011835;28;20041;-64
2022/01/16 03:24:48;;;;;;;39.17;27.53;;;;;;;;;;4998892;28;20019;-64
2022/01/16 03:27:16;;;;;;;37.43;27.57;;;;;;;;;;4993732;28;20104;-64
2022/01/16 03:30:18;;;;;;;40.03;29.40;;;;;;;;;;4976670;28;20077;-64
2022/01/16 03:32:44;;;;;;;43.63;28.80;;;;;;;;;;5004080;28;20041;-64
2022/01/16 03:35:10;;;;;;;43.10;29.17;;;;;;;;;;5014565;28;20037;-64
2022/01/16 03:37:36;;;;;;;41.17;28.40;;;;;;;;;;5012912;28;20395;-64
2022/01/16 03:40:04;;;;;;;38.23;28.70;;;;;;;;;;5012681;28;20030;-64
2022/01/16 03:42:33;;;;;;;41.97;28.63;;;;;;;;;;5013824;28;20108;-64
2022/01/16 03:44:59;;;;;;;41.47;28.73;;;;;;;;;;4997689;28;20109;-64
2022/01/16 03:47:25;;;;;;;42.20;28.10;;;;;;;;;;4993977;28;20062;-64
2022/01/16 03:49:51;;;;;;;39.03;28.90;;;;;;;;;;5007312;28;20072;-64
2022/01/16 03:52:17;;;;;;;38.70;28.33;;;;;;;;;;5013121;28;20479;-65
2022/01/16 03:54:43;;;;;;;41.47;28.40;;;;;;;;;;4999937;28;20496;-64
2022/01/16 03:57:09;;;;;;;42.17;29.27;;;;;;;;;;4993435;28;20561;-64
2022/01/16 03:59:35;;;;;;;38.33;27.37;;;;;;;;;;4993738;28;20369;-64
2022/01/16 04:02:01;;;;;;;42.33;29.70;;;;;;;;;;4976281;28;20444;-64
2022/01/16 04:04:27;;;;;;;39.53;27.97;;;;;;;;;;4994015;28;20030;-64
2022/01/16 04:06:53;;;;;;;42.97;28.17;;;;;;;;;;5008278;28;20091;-64
2022/01/16 04:09:19;;;;;;;37.33;27.67;;;;;;;;;;5004268;28;20049;-65
2022/01/16 04:11:51;;;;;;;38.73;28.13;;;;;;;;;;5011529;28;20038;-65
2022/01/16 04:14:24;;;;;;;41.30;29.43;;;;;;;;;;5012488;28;20033;-64
2022/01/16 04:16:52;;;;;;;41.77;30.07;;;;;;;;;;5012334;28;20037;-64
2022/01/16 04:19:18;;;;;;;45.13;30.87;;;;;;;;;;5006849;28;20022;-64
2022/01/16 04:21:44;;;;;;;42.43;29.87;;;;;;;;;;5012492;28;20117;-64
2022/01/16 04:24:10;;;;;;;43.33;29.13;;;;;;;;;;5005283;28;20035;-64
2022/01/16 04:26:36;;;;;;;45.70;30.10;;;;;;;;;;5001637;28;20048;-64
2022/01/16 04:29:02;;;;;;;42.37;30.47;;;;;;;;;;5005541;28;20078;-64
2022/01/16 04:31:28;;;;;;;37.97;26.73;;;;;;;;;;4975866;28;20043;-64
2022/01/16 04:33:54;;;;;;;42.43;30.17;;;;;;;;;;5006955;28;20034;-64
2022/01/16 04:36:20;;;;;;;39.53;28.83;;;;;;;;;;5007774;28;20030;-64
2022/01/16 04:38:49;;;;;;;41.37;29.27;;;;;;;;;;5010998;28;20029;-64
2022/01/16 04:44:00;;;;;;;42.13;28.77;;;;;;;;;;5011420;28;20037;-64
2022/01/16 04:46:28;;;;;;;39.10;28.67;;;;;;;;;;5022046;28;20021;-65
2022/01/16 04:48:55;;;;;;;39.27;28.37;;;;;;;;;;5035134;28;20034;-64
2022/01/16 04:51:21;;;;;;;38.90;27.37;;;;;;;;;;5016278;28;20076;-64
2022/01/16 04:53:47;;;;;;;38.70;27.30;;;;;;;;;;5015695;28;20049;-64
2022/01/16 04:56:14;;;;;;;38.23;27.17;;;;;;;;;;4996008;28;20092;-64
2022/01/16 04:58:40;;;;;;;39.53;28.83;;;;;;;;;;4997201;28;20425;-64
2022/01/16 05:01:07;;;;;;;42.87;29.03;;;;;;;;;;4979229;28;20480;-64
2022/01/16 05:03:33;;;;;;;35.33;27.87;;;;;;;;;;4996667;28;20022;-64
2022/01/16 05:06:00;;;;;;;39.40;27.90;;;;;;;;;;5009832;28;20438;-64
2022/01/16 05:08:28;;;;;;;36.57;28.37;;;;;;;;;;5011421;28;20070;-64
2022/01/16 05:10:55;;;;;;;38.33;28.43;;;;;;;;;;5015444;28;20483;-64
2022/01/16 05:18:38;;;;;;;38.63;28.23;;;;;;;;;;5016006;28;20037;-64
2022/01/16 05:21:04;;;;;;;41.17;27.93;;;;;;;;;;4999204;28;20031;-65
2022/01/16 05:23:30;;;;;;;39.30;27.90;;;;;;;;;;4996501;28;20026;-64
2022/01/16 05:25:57;;;;;;;38.73;28.33;;;;;;;;;;5000328;28;20116;-64
2022/01/16 05:28:23;;;;;;;39.83;27.53;;;;;;;;;;5015735;28;20026;-64
2022/01/16 05:30:49;;;;;;;40.97;28.57;;;;;;;;;;5001864;28;20109;-64
2022/01/16 05:33:15;;;;;;;40.80;29.50;;;;;;;;;;5009766;28;20025;-64
2022/01/16 05:35:42;;;;;;;38.77;28.67;;;;;;;;;;5006174;28;20378;-64
2022/01/16 05:38:09;;;;;;;39.67;28.87;;;;;;;;;;5015194;28;20034;-64
2022/01/16 05:40:35;;;;;;;41.07;28.07;;;;;;;;;;5009347;28;20053;-64
2022/01/16 05:43:01;;;;;;;41.17;28.50;;;;;;;;;;5015562;28;20060;-64
2022/01/16 05:45:28;;;;;;;37.00;27.23;;;;;;;;;;4987666;28;20026;-64
2022/01/16 05:47:54;;;;;;;41.23;28.03;;;;;;;;;;4995879;28;20467;-64
2022/01/16 05:50:20;;;;;;;42.60;29.37;;;;;;;;;;5001269;28;20038;-64
2022/01/16 05:52:47;;;;;;;42.43;29.57;;;;;;;;;;4996022;28;20030;-64
2022/01/16 05:55:13;;;;;;;38.83;27.73;;;;;;;;;;4995721;28;20649;-64
2022/01/16 05:57:39;;;;;;;40.43;28.60;;;;;;;;;;4990043;28;20425;-64
2022/01/16 06:00:06;;;;;;;37.60;28.00;;;;;;;;;;4990806;28;20542;-64
2022/01/16 06:02:32;;;;;;;35.13;27.53;;;;;;;;;;5016200;28;20057;-64
2022/01/16 06:04:58;;;;;;;37.50;27.40;;;;;;;;;;5000011;28;20047;-64
2022/01/16 06:07:24;;;;;;;34.50;25.83;;;;;;;;;;4999760;28;20065;-64
2022/01/16 06:09:52;;;;;;;36.20;27.67;;;;;;;;;;5011368;28;20021;-64
2022/01/16 06:12:18;;;;;;;44.50;28.73;;;;;;;;;;4995750;28;20109;-64
2022/01/16 06:14:44;;;;;;;37.43;27.47;;;;;;;;;;4995744;28;20037;-64
2022/01/16 06:17:41;;;;;;;41.80;28.07;;;;;;;;;;4995486;28;20038;-64
2022/01/16 06:20:07;;;;;;;39.50;27.33;;;;;;;;;;4996003;28;20393;-64
2022/01/16 06:22:33;;;;;;;36.53;26.17;;;;;;;;;;4995505;28;20030;-64
2022/01/16 06:24:59;;;;;;;38.77;28.13;;;;;;;;;;4995321;28;20085;-64
2022/01/16 06:27:25;;;;;;;39.67;27.50;;;;;;;;;;5004695;28;20038;-64
2022/01/16 06:29:51;;;;;;;38.53;26.43;;;;;;;;;;5010609;28;20109;-64
2022/01/16 06:32:17;;;;;;;39.03;25.63;;;;;;;;;;4995123;28;20430;-64
2022/01/16 06:34:52;;;;;;;35.90;26.33;;;;;;;;;;5011139;28;20049;-64
2022/01/16 06:37:18;;;;;;;38.15;27.02;;;;;;;;;;4998835;28;20044;-64
2022/01/16 06:39:44;;;;;;;37.23;27.03;;;;;;;;;;4994913;28;20029;-64
2022/01/16 06:42:10;;;;;;;36.20;25.77;;;;;;;;;;4999938;28;20096;-64
2022/01/16 06:44:36;;;;;;;36.33;26.07;;;;;;;;;;5013552;28;20053;-64
2022/01/16 06:47:02;;;;;;;37.27;27.00;;;;;;;;;;5003315;28;20475;-64
2022/01/16 06:49:28;;;;;;;33.60;25.00;;;;;;;;;;5014358;28;20025;-64
2022/01/16 06:51:54;;;;;;;35.90;26.17;;;;;;;;;;5009707;28;20056;-64
2022/01/16 06:54:21;;;;;;;35.70;25.57;;;;;;;;;;5014047;28;20030;-64
2022/01/16 06:56:47;;;;;;;36.13;26.07;;;;;;;;;;5010541;28;20558;-64
2022/01/16 06:59:13;;;;;;;40.63;26.90;;;;;;;;;;5010567;28;20112;-64
2022/01/16 07:01:39;;;;;;;38.17;27.77;;;;;;;;;;5011395;28;20029;-64
2022/01/16 07:04:05;;;;;;;40.43;29.87;;;;;;;;;;5013256;28;20034;-64
2022/01/16 07:06:30;;;;;;;40.73;29.53;;;;;;;;;;5009155;28;20125;-64
2022/01/16 07:08:56;;;;;;;42.67;29.20;;;;;;;;;;5008484;28;20105;-64
2022/01/16 07:11:22;;;;;;;44.40;31.13;;;;;;;;;;5007313;28;20068;-65
2022/01/16 07:13:49;;;;;;;41.57;29.80;;;;;;;;;;5013858;28;20048;-64
2022/01/16 07:19:33;;;;;;;43.53;30.03;;;;;;;;;;5002990;28;20065;-64
2022/01/16 07:21:59;;;;;;;42.90;29.97;;;;;;;;;;5002151;28;20030;-64
2022/01/16 07:24:25;;;;;;;42.80;30.23;;;;;;;;;;4991026;28;20065;-64
2022/01/16 07:26:51;;;;;;;39.70;28.53;;;;;;;;;;5005266;28;20527;-64
2022/01/16 07:29:17;;;;;;;42.07;31.43;;;;;;;;;;5013826;28;20101;-64
2022/01/16 07:31:43;;;;;;;43.57;29.07;;;;;;;;;;5005360;28;20065;-64
2022/01/16 07:34:09;;;;;;;37.30;28.63;;;;;;;;;;5002393;28;20453;-64
2022/01/16 07:36:36;;;;;;;41.30;28.53;;;;;;;;;;5006608;28;20034;-64
2022/01/16 07:39:02;;;;;;;39.47;28.83;;;;;;;;;;4993612;28;20117;-64
2022/01/16 07:41:28;;;;;;;37.67;26.00;;;;;;;;;;4993812;28;20062;-64
2022/01/16 07:43:54;;;;;;;34.73;26.43;;;;;;;;;;4994235;28;20435;-64
2022/01/16 07:46:20;;;;;;;33.87;25.43;;;;;;;;;;4993546;28;20046;-64
2022/01/16 07:48:46;;;;;;;34.73;25.47;;;;;;;;;;4994463;28;20145;-64
2022/01/16 07:51:12;;;;;;;35.60;25.30;;;;;;;;;;4994387;28;20053;-64
2022/01/16 07:53:38;;;;;;;32.83;25.50;;;;;;;;;;4993725;28;20419;-64
2022/01/16 07:56:04;;;;;;;34.13;23.87;;;;;;;;;;5002144;28;20027;-64
2022/01/16 07:58:30;;;;;;;30.53;22.57;;;;;;;;;;5012069;28;20034;-64
2022/01/16 08:00:56;;;;;;;32.23;24.70;;;;;;;;;;5013669;28;20033;-64
2022/01/16 08:03:23;;;;;;;28.77;22.33;;;;;;;;;;5008671;28;20041;-64
2022/01/16 08:05:49;;;;;;;31.90;23.47;;;;;;;;;;5011895;28;20108;-64
2022/01/16 08:08:15;;;;;;;29.80;22.40;;;;;;;;;;5009280;28;20033;-64
2022/01/16 08:10:42;;;;;;;34.37;24.97;;;;;;;;;;5012905;28;20026;-64
2022/01/16 08:13:08;;;;;;;33.50;22.77;;;;;;;;;;4997888;28;20049;-64
2022/01/16 08:15:34;;;;;;;31.27;23.07;;;;;;;;;;4997375;28;20025;-64
2022/01/16 08:18:00;;;;;;;27.30;22.00;;;;;;;;;;4982098;28;20116;-64
2022/01/16 08:20:26;;;;;;;36.00;24.23;;;;;;;;;;4997222;28;20030;-64
2022/01/16 08:22:52;;;;;;;28.83;23.63;;;;;;;;;;4997758;28;20454;-64
2022/01/16 08:25:18;;;;;;;29.93;21.37;;;;;;;;;;4997492;28;20058;-64
2022/01/16 08:27:44;;;;;;;30.93;24.70;;;;;;;;;;4998426;28;20038;-64
2022/01/16 08:30:11;;;;;;;31.47;23.67;;;;;;;;;;5034056;28;20040;-64
2022/01/16 08:32:43;;;;;;;30.30;23.90;;;;;;;;;;5017108;28;20066;-64
2022/01/16 08:35:10;;;;;;;35.43;24.33;;;;;;;;;;5016232;28;20463;-64
2022/01/16 08:37:36;;;;;;;36.27;26.33;;;;;;;;;;5006112;28;20066;-64
2022/01/16 08:40:04;;;;;;;37.20;26.23;;;;;;;;;;4997610;28;20029;-64
2022/01/16 08:42:30;;;;;;;38.53;26.93;;;;;;;;;;4997003;28;20018;-64
2022/01/16 08:44:56;;;;;;;37.67;27.87;;;;;;;;;;5006341;28;20107;-64
2022/01/16 08:47:22;;;;;;;37.10;27.03;;;;;;;;;;5008751;28;20042;-64
2022/01/16 08:49:48;;;;;;;36.37;27.37;;;;;;;;;;4996415;28;20591;-64
2022/01/16 08:52:17;;;;;;;34.70;26.90;;;;;;;;;;4989435;28;20499;-64
2022/01/16 08:54:43;;;;;;;34.60;25.80;;;;;;;;;;5011693;28;20029;-64
2022/01/16 08:57:09;;;;;;;37.70;28.27;;;;;;;;;;5015141;28;20487;-64
2022/01/16 08:59:35;;;;;;;42.60;29.37;;;;;;;;;;4998987;28;20037;-64
2022/01/16 09:02:01;;;;;;;38.80;28.60;;;;;;;;;;5013416;28;20026;-64
2022/01/16 09:04:27;;;;;;;39.67;28.63;;;;;;;;;;4996681;28;20073;-64
2022/01/16 09:06:53;;;;;;;36.13;27.83;;;;;;;;;;5014069;28;20030;-64
2022/01/16 09:09:19;;;;;;;39.03;30.00;;;;;;;;;;5014419;28;20083;-64
2022/01/16 09:11:45;;;;;;;39.70;29.57;;;;;;;;;;5014551;28;20037;-65
2022/01/16 09:14:11;;;;;;;40.23;30.10;;;;;;;;;;5013499;28;20026;-64
2022/01/16 09:16:37;;;;;;;42.37;30.33;;;;;;;;;;5015760;28;20092;-64
2022/01/16 09:19:03;;;;;;;38.87;30.30;;;;;;;;;;4979748;28;20089;-64
2022/01/16 09:21:29;;;;;;;40.87;31.43;;;;;;;;;;5014208;28;20022;-64
2022/01/16 09:23:55;;;;;;;37.50;30.10;;;;;;;;;;5015335;28;20081;-64
2022/01/16 09:26:21;;;;;;;40.17;30.40;;;;;;;;;;5015578;28;20116;-64
2022/01/16 09:28:47;;;;;;;38.10;30.87;;;;;;;;;;5004680;28;20026;-64
2022/01/16 09:31:15;;;;;;;41.00;29.17;;;;;;;;;;5014443;28;20602;-65
2022/01/16 09:33:41;;;;;;;42.40;30.13;;;;;;;;;;5017638;28;20025;-63
2022/01/16 09:36:09;;;;;;;43.27;31.17;;;;;;;;;;5013717;28;20064;-63
2022/01/16 09:38:35;;;;;;;43.90;31.90;;;;;;;;;;5013995;28;20034;-64
2022/01/16 09:41:01;;;;;;;40.93;29.90;;;;;;;;;;5011929;28;20463;-64
2022/01/16 09:43:27;;;;;;;36.80;29.87;;;;;;;;;;5006450;28;20550;-64
2022/01/16 09:45:54;;;;;;;38.43;29.43;;;;;;;;;;5015759;28;20076;-64
2022/01/16 09:48:35;;;;;;;40.57;29.40;;;;;;;;;;5004557;28;20069;-63
2022/01/16 09:51:01;;;;;;;44.83;31.40;;;;;;;;;;5012883;28;20045;-64
2022/01/16 09:53:27;;;;;;;42.57;31.27;;;;;;;;;;5003500;28;20058;-64
2022/01/16 09:55:53;;;;;;;43.47;31.20;;;;;;;;;;4995562;28;20030;-64
2022/01/16 09:58:22;;;;;;;40.27;31.80;;;;;;;;;;4995865;28;20487;-64
2022/01/16 10:00:48;;;;;;;42.73;31.80;;;;;;;;;;5005297;28;20017;-64
2022/01/16 10:03:33;;;;;;;44.17;32.37;;;;;;;;;;5005447;28;20034;-64
2022/01/16 10:06:20;;;;;;;42.92;32.50;;;;;;;;;;5001220;28;20187;-63
2022/01/16 10:08:47;;;;;;;46.20;35.27;;;;;;;;;;5006650;28;20036;-64
2022/01/16 10:11:27;;;;;;;48.10;35.17;;;;;;;;;;5015051;28;20430;-64
2022/01/16 10:14:02;;;;;;;50.00;34.77;;;;;;;;;;5000765;28;20041;-64
2022/01/16 10:16:31;;;;;;;51.00;36.73;;;;;;;;;;4995353;28;20034;-64
2022/01/16 10:18:57;;;;;;;49.20;36.47;;;;;;;;;;4995581;28;20109;-64
2022/01/16 10:21:40;;;;;;;46.97;35.60;;;;;;;;;;4995143;28;20026;-64
2022/01/16 10:24:15;;;;;;;44.60;35.27;;;;;;;;;;4998868;28;20153;-64
2022/01/16 10:26:41;;;;;;;49.93;35.23;;;;;;;;;;5009841;28;20056;-62
2022/01/16 10:29:08;;;;;;;48.20;37.37;;;;;;;;;;4998927;28;20026;-64
2022/01/16 10:31:34;;;;;;;46.30;35.53;;;;;;;;;;4995386;28;20057;-64
2022/01/16 10:34:00;;;;;;;47.17;36.73;;;;;;;;;;4979433;28;20029;-64
2022/01/16 10:36:33;;;;;;;50.03;38.57;;;;;;;;;;5008667;28;20065;-64
2022/01/16 10:39:04;;;;;;;50.87;38.57;;;;;;;;;;5012140;28;20040;-64
2022/01/16 10:41:30;;;;;;;50.20;39.03;;;;;;;;;;5013522;28;20483;-64
2022/01/16 10:43:56;;;;;;;50.93;38.07;;;;;;;;;;5010031;28;20029;-64
2022/01/16 10:46:25;;;;;;;51.03;40.07;;;;;;;;;;5011476;28;20030;-64
2022/01/16 10:49:11;;;;;;;50.07;40.27;;;;;;;;;;5003083;28;20026;-64
2022/01/16 10:51:38;;;;;;;56.63;44.17;;;;;;;;;;5005594;28;20032;-64
2022/01/16 10:54:22;;;;;;;52.57;41.33;;;;;;;;;;5012498;28;20030;-64
2022/01/16 10:56:48;;;;;;;53.53;42.47;;;;;;;;;;4998768;28;20108;-64
2022/01/16 10:59:24;;;;;;;55.83;43.70;;;;;;;;;;5010040;28;20765;-63
2022/01/16 11:02:08;;;;;;;54.03;41.47;;;;;;;;;;4994710;28;20027;-64
2022/01/16 11:04:34;;;;;;;54.45;42.42;;;;;;;;;;5008740;28;20108;-64
2022/01/16 11:07:02;;;;;;;53.00;41.10;;;;;;;;;;5010465;28;20030;-64
2022/01/16 11:09:28;;;;;;;56.47;42.27;;;;;;;;;;5008306;28;20018;-64
2022/01/16 11:11:59;;;;;;;55.53;43.70;;;;;;;;;;5013624;28;20462;-64
2022/01/16 11:14:25;;;;;;;54.27;43.60;;;;;;;;;;5010701;28;20025;-63
2022/01/16 11:16:52;;;;;;;57.67;44.00;;;;;;;;;;5012290;28;20033;-64
2022/01/16 11:19:21;;;;;;;55.80;43.63;;;;;;;;;;5011194;28;20026;-64
2022/01/16 11:21:50;;;;;;;53.90;42.70;;;;;;;;;;5012108;28;20026;-62
2022/01/16 11:26:43;;;;;;;58.73;43.37;;;;;;;;;;5012751;28;20046;-62
2022/01/16 11:29:09;;;;;;;59.67;43.83;;;;;;;;;;4996346;28;20022;-62
2022/01/16 11:31:35;;;;;;;60.60;43.57;;;;;;;;;;5007091;28;20018;-63
2022/01/16 11:34:01;;;;;;;52.30;40.73;;;;;;;;;;5002210;28;20038;-63
2022/01/16 11:36:28;;;;;;;52.70;41.73;;;;;;;;;;5011761;28;20382;-63
2022/01/16 11:38:59;;;;;;;57.47;40.97;;;;;;;;;;5012530;28;20029;-63
2022/01/16 11:41:32;;;;;;;55.90;41.77;;;;;;;;;;5011725;28;20478;-63
2022/01/16 11:43:59;;;;;;;55.20;39.27;;;;;;;;;;5013511;28;20026;-65
2022/01/16 11:46:28;;;;;;;48.20;39.90;;;;;;;;;;4994831;28;20423;-64
2022/01/16 11:49:03;;;;;;;53.73;40.40;;;;;;;;;;5011186;28;20073;-63
2022/01/16 11:51:35;;;;;;;50.38;38.55;;;;;;;;;;5011199;28;20037;-64
2022/01/16 11:54:19;;;;;;;49.60;39.43;;;;;;;;;;5013381;28;20109;-64
2022/01/16 11:56:45;;;;;;;50.97;37.60;;;;;;;;;;5009294;28;20449;-64
2022/01/16 11:59:14;;;;;;;48.53;36.67;;;;;;;;;;5011817;28;20121;-64
2022/01/16 12:01:50;;;;;;;46.93;36.17;;;;;;;;;;5010959;28;20530;-64
2022/01/16 12:04:31;;;;;;;67.40;45.53;;;;;;;;;;5011991;28;20029;-64
2022/01/16 12:06:58;;;;;;;56.37;42.50;;;;;;;;;;5009240;28;20148;-65
2022/01/16 12:12:04;;;;;;;59.73;43.87;;;;;;;;;;5012222;28;20068;-65
2022/01/16 12:14:48;;;;;;;56.30;42.27;;;;;;;;;;5009003;28;20041;-65
2022/01/16 12:17:51;;;;;;;60.42;42.88;;;;;;;;;;4994340;28;20120;-65
2022/01/16 12:20:28;;;;;;;59.30;44.93;;;;;;;;;;4953266;28;20034;-64
2022/01/16 12:22:59;;;;;;;59.60;45.47;;;;;;;;;;5002532;28;20030;-65
2022/01/16 12:25:25;;;;;;;58.60;44.40;;;;;;;;;;5003595;28;20058;-65
2022/01/16 12:27:52;;;;;;;60.47;44.10;;;;;;;;;;4998598;28;20061;-65
2022/01/16 12:30:22;;;;;;;57.97;44.60;;;;;;;;;;4986900;28;20395;-65
2022/01/16 12:32:48;;;;;;;58.80;43.67;;;;;;;;;;4975774;28;20053;-65
2022/01/16 12:35:14;;;;;;;62.63;46.20;;;;;;;;;;4996443;28;20061;-65
2022/01/16 12:37:41;;;;;;;59.03;43.70;;;;;;;;;;4975636;28;20031;-65
2022/01/16 12:40:07;;;;;;;58.80;45.43;;;;;;;;;;4993559;28;20038;-65
2022/01/16 12:42:33;;;;;;;56.47;43.37;;;;;;;;;;4986250;28;20029;-65
2022/01/16 12:44:59;;;;;;;58.67;41.40;;;;;;;;;;5008772;28;20118;-65
2022/01/16 12:47:26;;;;;;;51.60;39.50;;;;;;;;;;5010106;28;20029;-65
2022/01/16 12:49:53;;;;;;;53.47;38.90;;;;;;;;;;5007206;28;20032;-65
2022/01/16 12:52:19;;;;;;;49.93;36.67;;;;;;;;;;5012678;28;20072;-65
2022/01/16 12:54:50;;;;;;;51.00;35.83;;;;;;;;;;5008201;28;20057;-64
2022/01/16 12:57:25;;;;;;;51.17;38.50;;;;;;;;;;4975481;28;20050;-64
2022/01/16 12:59:51;;;;;;;49.97;37.83;;;;;;;;;;4993991;28;20061;-65
2022/01/16 13:02:17;;;;;;;49.20;36.73;;;;;;;;;;4993441;28;20463;-65
2022/01/16 13:04:44;;;;;;;50.50;36.33;;;;;;;;;;4993534;28;20018;-64
2022/01/16 13:07:11;;;;;;;46.43;34.30;;;;;;;;;;4983594;28;20026;-64
2022/01/16 13:09:37;;;;;;;45.73;33.27;;;;;;;;;;5014819;28;20033;-64
2022/01/16 13:12:04;;;;;;;46.85;34.92;;;;;;;;;;4996585;28;20484;-64
2022/01/16 13:14:34;;;;;;;49.50;34.22;;;;;;;;;;4996365;28;20038;-64
2022/01/16 13:17:01;;;;;;;48.67;36.43;;;;;;;;;;4995795;28;20117;-64
2022/01/16 13:19:29;;;;;;;46.57;34.37;;;;;;;;;;4995132;28;20053;-64
2022/01/16 13:22:05;;;;;;;47.07;34.13;;;;;;;;;;4996490;28;20506;-64
2022/01/16 13:24:32;;;;;;;42.30;32.50;;;;;;;;;;5001700;28;20084;-64
2022/01/16 13:26:58;;;;;;;47.87;35.03;;;;;;;;;;4995982;28;20093;-64
2022/01/16 13:29:25;;;;;;;49.17;34.33;;;;;;;;;;4996321;28;20057;-64
2022/01/16 13:31:51;;;;;;;44.15;33.58;;;;;;;;;;4996321;28;20053;-64
2022/01/16 13:34:19;;;;;;;50.43;36.00;;;;;;;;;;4996259;28;20108;-65
2022/01/16 13:36:55;;;;;;;47.20;33.65;;;;;;;;;;4978427;28;20046;-65
2022/01/16 13:39:33;;;;;;;47.50;33.95;;;;;;;;;;4996413;28;20034;-64
2022/01/16 13:42:12;;;;;;;49.13;35.97;;;;;;;;;;5006764;28;20034;-64
2022/01/16 13:44:38;;;;;;;46.55;33.75;;;;;;;;;;5013981;28;20540;-64
2022/01/16 13:47:04;;;;;;;53.17;36.83;;;;;;;;;;5009957;28;20399;-64
2022/01/16 13:49:30;;;;;;;46.20;35.88;;;;;;;;;;5014563;28;20084;-64
2022/01/16 13:51:57;;;;;;;49.80;36.58;;;;;;;;;;4994980;28;20395;-64
2022/01/16 13:54:29;;;;;;;48.63;34.97;;;;;;;;;;4995916;28;20149;-64
2022/01/16 13:56:56;;;;;;;47.10;34.72;;;;;;;;;;4995519;28;20041;-64
2022/01/16 13:59:22;;;;;;;46.93;33.97;;;;;;;;;;4995668;28;20464;-64
2022/01/16 14:01:52;;;;;;;47.75;34.22;;;;;;;;;;4996027;28;20042;-64
2022/01/16 14:04:19;;;;;;;48.40;35.15;;;;;;;;;;5014825;28;20128;-64
2022/01/16 14:06:49;;;;;;;51.13;36.72;;;;;;;;;;4997895;28;20037;-64
2022/01/16 14:09:15;;;;;;;51.38;36.22;;;;;;;;;;4995169;28;20070;-65
2022/01/16 14:11:46;;;;;;;50.30;36.25;;;;;;;;;;4995356;28;20030;-64
2022/01/16 14:14:13;;;;;;;53.97;37.73;;;;;;;;;;4995718;28;20037;-65
2022/01/16 14:19:35;;;;;;;50.10;36.38;;;;;;;;;;4995702;28;20518;-65
2022/01/16 14:24:28;;;;;;;46.88;34.70;;;;;;;;;;4995358;28;20487;-64
2022/01/16 14:26:56;;;;;;;47.92;34.53;;;;;;;;;;4994400;28;20050;-65
2022/01/16 14:29:23;;;;;;;45.13;34.15;;;;;;;;;;5009524;28;20048;-65
2022/01/16 14:31:50;;;;;;;44.63;34.20;;;;;;;;;;4980908;28;20097;-65
2022/01/16 14:34:17;;;;;;;47.35;34.47;;;;;;;;;;4994781;28;20027;-64
2022/01/16 14:36:43;;;;;;;44.72;34.60;;;;;;;;;;4977198;28;20065;-65
2022/01/16 14:39:09;;;;;;;47.77;35.60;;;;;;;;;;4994905;28;20049;-65
2022/01/16 14:41:38;;;;;;;50.33;35.30;;;;;;;;;;4994802;28;20101;-64
2022/01/16 14:44:05;;;;;;;50.13;33.22;;;;;;;;;;5011328;28;20065;-64
2022/01/16 14:46:31;;;;;;;45.10;32.92;;;;;;;;;;5008515;28;20082;-64
2022/01/16 14:48:57;;;;;;;43.65;32.42;;;;;;;;;;5013010;28;20040;-64
2022/01/16 14:51:24;;;;;;;41.17;31.30;;;;;;;;;;5007899;28;20033;-64
2022/01/16 14:53:50;;;;;;;41.80;31.05;;;;;;;;;;5013106;28;20037;-64
2022/01/16 14:56:16;;;;;;;42.92;31.42;;;;;;;;;;5003770;28;20034;-64
2022/01/16 14:58:43;;;;;;;42.83;30.27;;;;;;;;;;5000739;28;20546;-64
2022/01/16 15:01:13;;;;;;;41.92;29.42;;;;;;;;;;5010326;28;20021;-64
2022/01/16 15:03:40;;;;;;;41.17;30.05;;;;;;;;;;4992656;28;20036;-64
2022/01/16 15:06:07;;;;;;;44.30;31.98;;;;;;;;;;5004531;28;20030;-63
2022/01/16 15:08:37;;;;;;;45.67;31.70;;;;;;;;;;4996242;28;20022;-63
2022/01/16 15:11:04;;;;;;;45.30;33.70;;;;;;;;;;5007975;28;20073;-63
2022/01/16 15:13:52;;;;;;;48.20;33.35;;;;;;;;;;5012784;28;20056;-64
2022/01/16 15:16:24;;;;;;;42.50;30.95;;;;;;;;;;4993810;28;20026;-64
2022/01/16 15:18:54;;;;;;;45.95;32.78;;;;;;;;;;5013391;28;20034;-63
2022/01/16 15:21:26;;;;;;;50.37;34.20;;;;;;;;;;5010007;28;20028;-63